Nasco Pearl — VRHS2 — position and weather

sailwx.info

Track history (hours):
 
Tides and Currents Weather Stations Pressure Air Temp Water Temp Dewpoint Dewpoint Depression Visibility Wind Speed Wind Dir Waves Ship Positions

Nasco Pearl

Last reported at 2015-Jul-02 13:27 UTC. Time now 2015-Jul-03 23:42 UTC.
Position N 38°54' E 118°05'.

Length 189 m; draft 9.2 m.

Type: Cargo ship. MMSI: 477982400.

Date/timePositionNaut miles runAvg speedWind from/ knotsBaromVisibWave heightAir tempDewpointWater temp
2015-Jul-02 13:27N 38°54' E 118°05'0 0.0
2015-Jul-02 12:33N 38°54' E 118°05'0 0.0
2015-Jul-02 11:33N 38°54' E 118°05'0 0.0
2015-Jul-02 10:21N 38°54' E 118°05'0 0.1
2015-Jul-02 09:33N 38°54' E 118°05'0 0.0
2015-Jul-02 02:21N 38°54' E 118°04'0 0.0
2015-Jul-01 11:09N 38°54' E 118°05'0 0.0
2015-Jul-01 10:27N 38°54' E 118°05'0 0.1
2015-Jul-01 09:33N 38°54' E 118°05'0 0.0
2015-Jul-01 08:33N 38°54' E 118°05'  
2015-Jun-29 03:33N 38°54' E 118°04'0 0.0
2015-Jun-28 15:32N 38°54' E 118°04'0 0.0
2015-Jun-28 14:33N 38°54' E 118°04'0 0.0
2015-Jun-27 11:26N 38°54' E 118°04'0 0.0
2015-Jun-26 14:26N 38°54' E 118°04'0 0.1
2015-Jun-26 13:26N 38°54' E 118°04'0 0.0
2015-Jun-26 12:26N 38°54' E 118°04'0 0.0
2015-Jun-26 11:20N 38°54' E 118°04'4 0.2
2015-Jun-25 17:11N 38°56' E 117°59'812.6
2015-Jun-25 16:34N 38°58' E 117°50'4 3.6
2015-Jun-25 15:29N 38°59' E 117°45'0 0.0
2015-Jun-25 14:29N 38°59' E 117°45'0 0.0
2015-Jun-25 13:29N 38°59' E 117°45'0 0.0
2015-Jun-25 12:29N 38°59' E 117°45'0 0.0
2015-Jun-25 11:29N 38°59' E 117°45'0 0.0
2015-Jun-25 10:29N 38°59' E 117°45'0 0.0
2015-Jun-25 09:29N 38°59' E 117°45'0 0.0
2015-Jun-25 08:29N 38°59' E 117°45'0 0.0
2015-Jun-25 07:29N 38°59' E 117°45'0 0.0
2015-Jun-25 06:29N 38°59' E 117°45'0 0.0
2015-Jun-25 05:29N 38°59' E 117°45'0 0.0
2015-Jun-25 04:29N 38°59' E 117°45'0 0.0
2015-Jun-25 03:29N 38°59' E 117°45'0 0.0
2015-Jun-25 02:23N 38°59' E 117°45'0 0.0
2015-Jun-25 01:29N 38°59' E 117°45'  
2015-Jun-22 15:25N 38°57' E 118°06'  
Track history (hours):
 
Tides and Currents Weather Stations Pressure Air Temp Water Temp Dewpoint Dewpoint Depression Visibility Wind Speed Wind Dir Waves Ship Positions

Nasco Pearl

Last reported at 2015-Jul-02 13:27 UTC. Time now 2015-Jul-03 23:42 UTC.
Position N 38°54' E 118°05'.

Length 189 m; draft 9.2 m.

Type: Cargo ship. MMSI: 477982400.

Date/timePositionNaut miles runAvg speedWind from/ knotsBaromVisibWave heightAir tempDewpointWater temp
2015-Jul-02 13:27N 38°54' E 118°05'0 0.0
2015-Jul-02 12:33N 38°54' E 118°05'0 0.0
2015-Jul-02 11:33N 38°54' E 118°05'0 0.0
2015-Jul-02 10:21N 38°54' E 118°05'0 0.1
2015-Jul-02 09:33N 38°54' E 118°05'0 0.0
2015-Jul-02 02:21N 38°54' E 118°04'0 0.0
2015-Jul-01 11:09N 38°54' E 118°05'0 0.0
2015-Jul-01 10:27N 38°54' E 118°05'0 0.1
2015-Jul-01 09:33N 38°54' E 118°05'0 0.0
2015-Jul-01 08:33N 38°54' E 118°05'  
2015-Jun-29 03:33N 38°54' E 118°04'0 0.0
2015-Jun-28 15:32N 38°54' E 118°04'0 0.0
2015-Jun-28 14:33N 38°54' E 118°04'0 0.0
2015-Jun-27 11:26N 38°54' E 118°04'0 0.0
2015-Jun-26 14:26N 38°54' E 118°04'0 0.1
2015-Jun-26 13:26N 38°54' E 118°04'0 0.0
2015-Jun-26 12:26N 38°54' E 118°04'0 0.0
2015-Jun-26 11:20N 38°54' E 118°04'4 0.2
2015-Jun-25 17:11N 38°56' E 117°59'812.6
2015-Jun-25 16:34N 38°58' E 117°50'4 3.6
2015-Jun-25 15:29N 38°59' E 117°45'0 0.0
2015-Jun-25 14:29N 38°59' E 117°45'0 0.0
2015-Jun-25 13:29N 38°59' E 117°45'0 0.0
2015-Jun-25 12:29N 38°59' E 117°45'0 0.0
2015-Jun-25 11:29N 38°59' E 117°45'0 0.0
2015-Jun-25 10:29N 38°59' E 117°45'0 0.0
2015-Jun-25 09:29N 38°59' E 117°45'0 0.0
2015-Jun-25 08:29N 38°59' E 117°45'0 0.0
2015-Jun-25 07:29N 38°59' E 117°45'0 0.0
2015-Jun-25 06:29N 38°59' E 117°45'0 0.0
2015-Jun-25 05:29N 38°59' E 117°45'0 0.0
2015-Jun-25 04:29N 38°59' E 117°45'0 0.0
2015-Jun-25 03:29N 38°59' E 117°45'0 0.0
2015-Jun-25 02:23N 38°59' E 117°45'0 0.0
2015-Jun-25 01:29N 38°59' E 117°45'  
2015-Jun-22 15:25N 38°57' E 118°06'  

Dump ship's entire track history